Cassel, California
Current Conditions -  °F | °C
As of 5:56 AM on Friday 28 Nov 2014 (Local Time) from KMHS Reporting Station
Clear Clear  
Wind Chill: 45°   Ceiling: Unl
Heat Index: 48°   Visibility: 10mi
Dew Point: 29°   Wind: 7mph
Humidity: 48%   Direction: NA
Pressure: 29.94"   Gusts: NA
Location:  40.92°N, 121.55°W
Report Text: KMHS 281356Z AUTO VRB06KT 10SM CLR 09/M02 A2994 RMK AO2 SLP148 T00891017
Loading
Personal Weather Stations






























Interactive Weather Map New forecast layout! Learn more

10-Day Weather Forecast

Advertisements
Track Severe Weather on mobile